Time;durP1;ratioP1;P1;durP2;ratioP2;P2;SDS_P1;SDS_P2;PMS_P1;PMS_P2;Temp;Humidity;BMP_temperature;BMP_pressure;BME280_temperature;BME280_humidity;BME280_pressure;Samples;Min_cycle;Max_cycle;Signal;HPM_P1;HPM_P2
2024/03/27 00:02:27;;;;;;;10.23;5.32;;;;;;;;;;5012802;28;20022;-65
2024/03/27 00:05:13;;;;;;;10.50;5.57;;;;;;;;;;5013238;28;20025;-65
2024/03/27 00:07:59;;;;;;;9.48;5.57;;;;;;;;;;5011788;28;20109;-65
2024/03/27 00:10:45;;;;;;;14.93;5.72;;;;;;;;;;5012478;28;20111;-65
2024/03/27 00:13:30;;;;;;;10.00;5.80;;;;;;;;;;5012945;28;20053;-65
2024/03/27 00:16:16;;;;;;;9.52;5.30;;;;;;;;;;5012645;28;20050;-65
2024/03/27 00:19:02;;;;;;;8.65;4.82;;;;;;;;;;5011806;28;20480;-65
2024/03/27 00:21:48;;;;;;;11.98;5.72;;;;;;;;;;4998459;28;20038;-65
2024/03/27 00:24:34;;;;;;;14.63;5.65;;;;;;;;;;5012552;28;20534;-65
2024/03/27 00:27:19;;;;;;;10.57;5.72;;;;;;;;;;5015530;28;20108;-65
2024/03/27 00:30:07;;;;;;;11.43;5.32;;;;;;;;;;5019249;28;20057;-65
2024/03/27 00:32:55;;;;;;;9.45;5.25;;;;;;;;;;5017138;28;20029;-65
2024/03/27 00:35:42;;;;;;;11.45;6.85;;;;;;;;;;5019043;28;20565;-65
2024/03/27 00:38:27;;;;;;;9.68;5.35;;;;;;;;;;5018265;28;20014;-65
2024/03/27 00:41:13;;;;;;;11.52;5.90;;;;;;;;;;5018875;28;20108;-65
2024/03/27 00:43:59;;;;;;;10.43;5.13;;;;;;;;;;5018340;28;20037;-65
2024/03/27 00:46:44;;;;;;;10.48;5.70;;;;;;;;;;5018825;28;20033;-65
2024/03/27 00:49:30;;;;;;;10.13;5.40;;;;;;;;;;5018809;28;20487;-65
2024/03/27 00:52:16;;;;;;;9.07;4.95;;;;;;;;;;5018465;28;20178;-65
2024/03/27 00:55:02;;;;;;;10.60;5.18;;;;;;;;;;5018814;28;20109;-65
2024/03/27 00:57:47;;;;;;;9.50;4.97;;;;;;;;;;5018820;28;20087;-65
2024/03/27 01:00:33;;;;;;;9.68;5.15;;;;;;;;;;5018826;28;20492;-65
2024/03/27 01:03:19;;;;;;;11.48;6.60;;;;;;;;;;5018256;28;20030;-65
2024/03/27 01:06:05;;;;;;;8.93;5.18;;;;;;;;;;5018937;28;20033;-65
2024/03/27 01:08:50;;;;;;;10.57;5.63;;;;;;;;;;5018177;28;20026;-65
2024/03/27 01:11:36;;;;;;;9.85;5.70;;;;;;;;;;5018505;28;20036;-65
2024/03/27 01:14:22;;;;;;;10.90;5.43;;;;;;;;;;5018670;28;20522;-65
2024/03/27 01:17:07;;;;;;;10.57;4.95;;;;;;;;;;5018851;28;20434;-65
2024/03/27 01:19:53;;;;;;;10.32;6.13;;;;;;;;;;5017795;28;20025;-65
2024/03/27 01:22:38;;;;;;;11.27;5.65;;;;;;;;;;5018309;28;20030;-65
2024/03/27 01:25:24;;;;;;;11.32;5.18;;;;;;;;;;5018532;28;20129;-65
2024/03/27 01:28:10;;;;;;;10.77;5.47;;;;;;;;;;5030174;28;20091;-64
2024/03/27 01:30:56;;;;;;;8.63;4.95;;;;;;;;;;5018981;28;20405;-65
2024/03/27 01:33:41;;;;;;;9.93;4.75;;;;;;;;;;5019392;28;20029;-65
2024/03/27 01:36:27;;;;;;;11.10;5.35;;;;;;;;;;5019410;28;20022;-65
2024/03/27 01:39:12;;;;;;;11.63;5.20;;;;;;;;;;5016669;28;20026;-65
2024/03/27 01:41:58;;;;;;;12.15;5.18;;;;;;;;;;5020731;28;20025;-64
2024/03/27 01:44:44;;;;;;;10.07;5.35;;;;;;;;;;5035249;28;20021;-65
2024/03/27 01:47:29;;;;;;;14.55;6.75;;;;;;;;;;5026175;28;20115;-64
2024/03/27 01:50:15;;;;;;;8.95;5.47;;;;;;;;;;5023539;28;20551;-64
2024/03/27 01:53:02;;;;;;;14.30;6.10;;;;;;;;;;5016324;28;20033;-64
2024/03/27 01:55:47;;;;;;;12.77;5.70;;;;;;;;;;5034353;28;20053;-64
2024/03/27 01:58:33;;;;;;;11.23;5.80;;;;;;;;;;5034190;28;20104;-64
2024/03/27 02:01:19;;;;;;;10.80;5.63;;;;;;;;;;5026496;28;20087;-64
2024/03/27 02:04:05;;;;;;;11.20;5.05;;;;;;;;;;5014085;28;20112;-64
2024/03/27 02:06:51;;;;;;;12.98;5.25;;;;;;;;;;5016609;28;20064;-64
2024/03/27 02:09:37;;;;;;;11.90;5.22;;;;;;;;;;5015092;28;20448;-64
2024/03/27 02:12:23;;;;;;;15.02;6.18;;;;;;;;;;5014706;28;20058;-65
2024/03/27 02:15:09;;;;;;;11.93;6.22;;;;;;;;;;5017992;28;20056;-65
2024/03/27 02:17:55;;;;;;;12.05;5.50;;;;;;;;;;5013439;28;20100;-65
2024/03/27 02:20:41;;;;;;;13.25;5.63;;;;;;;;;;5027653;28;20491;-65
2024/03/27 02:23:29;;;;;;;11.38;6.68;;;;;;;;;;5014276;28;20021;-64
2024/03/27 02:26:16;;;;;;;11.23;6.28;;;;;;;;;;5002688;28;20051;-64
2024/03/27 02:29:01;;;;;;;13.13;5.57;;;;;;;;;;5014143;28;20109;-64
2024/03/27 02:31:47;;;;;;;11.15;5.97;;;;;;;;;;5013595;28;20025;-64
2024/03/27 02:34:33;;;;;;;9.63;5.80;;;;;;;;;;5014912;28;20585;-64
2024/03/27 02:37:18;;;;;;;11.82;6.63;;;;;;;;;;5014392;28;20452;-64
2024/03/27 02:40:05;;;;;;;11.60;5.82;;;;;;;;;;5013510;28;20037;-65
2024/03/27 02:42:51;;;;;;;12.95;6.32;;;;;;;;;;5014091;28;20034;-64
2024/03/27 02:45:37;;;;;;;11.38;6.85;;;;;;;;;;5014511;28;20030;-65
2024/03/27 02:48:22;;;;;;;12.75;6.22;;;;;;;;;;5014298;28;20026;-65
2024/03/27 02:51:08;;;;;;;10.85;5.80;;;;;;;;;;5012702;28;20030;-64
2024/03/27 02:53:53;;;;;;;12.23;5.93;;;;;;;;;;5013442;28;20034;-65
2024/03/27 02:56:39;;;;;;;11.32;6.40;;;;;;;;;;5013863;28;20049;-65
2024/03/27 02:59:25;;;;;;;14.05;6.78;;;;;;;;;;5013812;28;20022;-65
2024/03/27 03:02:10;;;;;;;13.77;6.57;;;;;;;;;;5014073;28;20463;-65
2024/03/27 03:04:56;;;;;;;15.30;8.20;;;;;;;;;;5013713;28;20395;-65
2024/03/27 03:07:42;;;;;;;14.30;6.32;;;;;;;;;;5013032;28;20080;-65
2024/03/27 03:10:27;;;;;;;13.82;6.32;;;;;;;;;;5013657;28;20112;-65
2024/03/27 03:13:13;;;;;;;11.07;6.70;;;;;;;;;;5013427;28;20025;-65
2024/03/27 03:15:58;;;;;;;11.90;6.38;;;;;;;;;;5013706;28;20060;-65
2024/03/27 03:18:47;;;;;;;11.02;6.22;;;;;;;;;;5013022;28;20399;-64
2024/03/27 03:21:34;;;;;;;10.90;6.22;;;;;;;;;;5012466;28;20029;-65
2024/03/27 03:24:20;;;;;;;14.10;6.25;;;;;;;;;;5013494;28;20109;-65
2024/03/27 03:27:05;;;;;;;12.77;5.90;;;;;;;;;;5013261;28;20036;-65
2024/03/27 03:29:51;;;;;;;12.30;6.43;;;;;;;;;;5013381;28;20028;-65
2024/03/27 03:32:36;;;;;;;12.48;5.88;;;;;;;;;;5013080;28;20455;-65
2024/03/27 03:35:25;;;;;;;11.68;5.55;;;;;;;;;;5012846;28;20022;-65
2024/03/27 03:38:11;;;;;;;14.38;6.65;;;;;;;;;;5012734;28;20104;-65
2024/03/27 03:41:00;;;;;;;12.88;7.35;;;;;;;;;;5013347;28;20033;-64
2024/03/27 03:43:46;;;;;;;14.32;6.70;;;;;;;;;;5012222;28;20476;-65
2024/03/27 03:46:32;;;;;;;11.10;6.22;;;;;;;;;;5013260;28;20025;-65
2024/03/27 03:49:17;;;;;;;12.88;6.95;;;;;;;;;;5012289;28;20022;-65
2024/03/27 03:52:03;;;;;;;11.38;6.25;;;;;;;;;;5012773;28;20040;-65
2024/03/27 03:54:49;;;;;;;12.30;6.32;;;;;;;;;;5013151;28;20111;-65
2024/03/27 03:57:35;;;;;;;13.57;6.03;;;;;;;;;;5012889;28;20483;-65
2024/03/27 04:00:21;;;;;;;11.13;5.65;;;;;;;;;;5013173;28;20041;-65
2024/03/27 04:03:07;;;;;;;11.57;6.32;;;;;;;;;;5011753;28;20026;-65
2024/03/27 04:05:52;;;;;;;12.20;7.50;;;;;;;;;;5013008;28;20021;-65
2024/03/27 04:08:38;;;;;;;9.30;6.00;;;;;;;;;;5012756;28;20044;-65
2024/03/27 04:11:23;;;;;;;10.43;5.85;;;;;;;;;;5025583;28;20108;-65
2024/03/27 04:14:09;;;;;;;12.90;6.55;;;;;;;;;;5031466;28;20116;-65
2024/03/27 04:16:55;;;;;;;12.02;6.05;;;;;;;;;;5031808;28;20020;-65
2024/03/27 04:19:40;;;;;;;11.70;5.80;;;;;;;;;;5032657;28;20053;-65
2024/03/27 04:22:32;;;;;;;12.30;7.18;;;;;;;;;;5031488;28;20026;-65
2024/03/27 04:25:19;;;;;;;11.55;6.30;;;;;;;;;;5031684;28;20025;-65
2024/03/27 04:28:05;;;;;;;13.82;7.53;;;;;;;;;;5031501;28;20398;-65
2024/03/27 04:30:54;;;;;;;18.50;6.10;;;;;;;;;;5031939;28;20022;-65
2024/03/27 04:33:40;;;;;;;12.82;6.35;;;;;;;;;;5031845;28;20021;-65
2024/03/27 04:36:26;;;;;;;11.30;6.35;;;;;;;;;;5031637;28;20502;-65
2024/03/27 04:39:11;;;;;;;11.70;5.90;;;;;;;;;;5032115;28;20080;-65
2024/03/27 04:41:57;;;;;;;10.13;5.78;;;;;;;;;;5032058;28;20091;-65
2024/03/27 04:44:43;;;;;;;10.25;5.88;;;;;;;;;;5032424;28;20115;-65
2024/03/27 04:47:28;;;;;;;12.40;5.88;;;;;;;;;;5031446;28;20103;-65
2024/03/27 04:50:14;;;;;;;10.93;5.78;;;;;;;;;;5031874;28;20022;-65
2024/03/27 04:52:59;;;;;;;11.68;6.15;;;;;;;;;;5031613;28;20026;-65
2024/03/27 04:55:53;;;;;;;14.38;6.50;;;;;;;;;;5031051;28;20080;-65
2024/03/27 04:58:39;;;;;;;12.60;5.70;;;;;;;;;;5031717;28;20100;-65
2024/03/27 05:01:25;;;;;;;15.80;6.72;;;;;;;;;;5031891;28;20021;-65
2024/03/27 05:04:10;;;;;;;13.07;6.50;;;;;;;;;;5031650;28;20033;-65
2024/03/27 05:06:56;;;;;;;13.60;6.60;;;;;;;;;;5031049;28;20439;-65
2024/03/27 05:09:42;;;;;;;13.63;6.80;;;;;;;;;;5032593;28;20047;-65
2024/03/27 05:12:28;;;;;;;13.85;6.65;;;;;;;;;;5031829;28;20104;-65
2024/03/27 05:15:13;;;;;;;15.98;7.95;;;;;;;;;;5035070;28;20030;-65
2024/03/27 05:17:59;;;;;;;12.77;6.07;;;;;;;;;;5035414;28;20061;-65
2024/03/27 05:20:46;;;;;;;16.55;7.20;;;;;;;;;;5034503;28;20029;-65
2024/03/27 05:23:32;;;;;;;15.80;7.03;;;;;;;;;;5036049;28;20084;-65
2024/03/27 05:26:17;;;;;;;16.05;7.75;;;;;;;;;;5021363;28;20025;-65
2024/03/27 05:29:04;;;;;;;15.50;8.07;;;;;;;;;;5034561;28;20531;-65
2024/03/27 05:31:51;;;;;;;16.42;7.93;;;;;;;;;;5034744;28;20406;-65
2024/03/27 05:34:37;;;;;;;13.48;6.93;;;;;;;;;;5020379;28;20486;-65
2024/03/27 05:37:22;;;;;;;14.98;7.15;;;;;;;;;;5035296;28;20079;-65
2024/03/27 05:40:08;;;;;;;12.48;6.05;;;;;;;;;;5034050;28;20068;-65
2024/03/27 05:42:54;;;;;;;14.05;6.53;;;;;;;;;;5033449;28;20026;-65
2024/03/27 05:45:40;;;;;;;11.75;7.93;;;;;;;;;;5034907;28;20083;-65
2024/03/27 05:48:25;;;;;;;14.32;6.78;;;;;;;;;;5034187;28;20037;-65
2024/03/27 05:51:14;;;;;;;15.55;6.60;;;;;;;;;;5034459;28;20034;-65
2024/03/27 05:54:00;;;;;;;17.75;7.07;;;;;;;;;;5070667;23;20099;-65
2024/03/27 05:56:45;;;;;;;15.35;8.38;;;;;;;;;;5054225;28;20390;-65
2024/03/27 05:59:31;;;;;;;16.27;7.65;;;;;;;;;;5053832;28;20047;-64
2024/03/27 06:02:17;;;;;;;12.70;7.32;;;;;;;;;;5053464;28;20043;-65
2024/03/27 06:05:03;;;;;;;15.13;7.70;;;;;;;;;;5034428;28;20121;-64
2024/03/27 06:07:48;;;;;;;14.38;6.85;;;;;;;;;;5034583;28;20026;-64
2024/03/27 06:10:34;;;;;;;15.20;7.88;;;;;;;;;;5033237;28;20025;-65
2024/03/27 06:13:20;;;;;;;14.40;7.40;;;;;;;;;;5033905;28;20018;-65
2024/03/27 06:16:06;;;;;;;12.95;7.57;;;;;;;;;;5033910;28;20479;-65
2024/03/27 06:18:54;;;;;;;16.40;6.97;;;;;;;;;;5034482;28;20029;-65
2024/03/27 06:21:39;;;;;;;13.32;7.07;;;;;;;;;;5033882;28;20059;-65
2024/03/27 06:24:25;;;;;;;15.32;7.43;;;;;;;;;;5033352;28;20439;-65
2024/03/27 06:27:10;;;;;;;16.65;8.73;;;;;;;;;;5033050;28;20025;-65
2024/03/27 06:29:56;;;;;;;16.50;6.97;;;;;;;;;;5033816;28;20064;-65
2024/03/27 06:32:43;;;;;;;15.93;6.72;;;;;;;;;;5033689;28;20030;-65
2024/03/27 06:35:29;;;;;;;11.50;6.13;;;;;;;;;;5033693;28;20060;-65
2024/03/27 06:38:14;;;;;;;17.77;8.30;;;;;;;;;;5033544;28;20104;-64
2024/03/27 06:41:00;;;;;;;12.45;6.70;;;;;;;;;;5032619;28;20030;-65
2024/03/27 06:43:47;;;;;;;16.30;6.38;;;;;;;;;;5033515;28;20107;-65
2024/03/27 06:46:36;;;;;;;11.68;6.45;;;;;;;;;;5033409;28;20514;-65
2024/03/27 06:49:31;;;;;;;17.13;9.05;;;;;;;;;;5033450;28;20434;-64
2024/03/27 06:52:19;;;;;;;17.80;7.43;;;;;;;;;;5033179;28;20040;-65
2024/03/27 06:55:05;;;;;;;10.93;6.22;;;;;;;;;;5034523;28;20091;-65
2024/03/27 06:57:51;;;;;;;12.88;6.82;;;;;;;;;;5033265;28;20018;-65
2024/03/27 07:00:37;;;;;;;16.52;7.13;;;;;;;;;;5033025;28;20029;-65
2024/03/27 07:03:22;;;;;;;13.60;7.28;;;;;;;;;;5032975;28;20656;-65
2024/03/27 07:06:08;;;;;;;15.38;7.78;;;;;;;;;;5032898;28;20057;-65
2024/03/27 07:08:54;;;;;;;14.18;7.63;;;;;;;;;;5032415;28;20095;-65
2024/03/27 07:11:39;;;;;;;14.50;6.75;;;;;;;;;;5032858;28;20407;-65
2024/03/27 07:14:25;;;;;;;14.02;7.85;;;;;;;;;;5032868;28;20494;-65
2024/03/27 07:17:11;;;;;;;14.57;7.80;;;;;;;;;;5033309;28;20021;-65
2024/03/27 07:19:57;;;;;;;15.13;6.63;;;;;;;;;;5032624;28;20021;-65
2024/03/27 07:22:42;;;;;;;16.30;6.57;;;;;;;;;;5032043;28;20087;-65
2024/03/27 07:25:28;;;;;;;15.73;7.47;;;;;;;;;;5032718;28;20105;-65
2024/03/27 07:28:14;;;;;;;13.93;7.25;;;;;;;;;;5032323;28;20025;-65
2024/03/27 07:30:59;;;;;;;11.70;7.65;;;;;;;;;;5021054;28;20028;-65
2024/03/27 07:33:45;;;;;;;15.18;6.55;;;;;;;;;;5015274;28;20029;-64
2024/03/27 07:36:31;;;;;;;14.18;7.20;;;;;;;;;;5011653;28;20061;-65
2024/03/27 07:39:17;;;;;;;13.45;6.75;;;;;;;;;;5022370;28;20491;-64
2024/03/27 07:42:03;;;;;;;13.73;6.95;;;;;;;;;;5031227;28;20025;-64
2024/03/27 07:44:48;;;;;;;11.27;6.13;;;;;;;;;;5012466;28;20041;-65
2024/03/27 07:47:34;;;;;;;14.40;7.80;;;;;;;;;;5011271;28;20033;-65
2024/03/27 07:50:19;;;;;;;13.65;6.78;;;;;;;;;;5012658;28;20057;-65
2024/03/27 07:53:05;;;;;;;15.73;8.02;;;;;;;;;;5027393;28;20041;-65
2024/03/27 07:55:58;;;;;;;14.38;7.78;;;;;;;;;;5011884;28;20065;-64
2024/03/27 07:58:44;;;;;;;17.85;7.53;;;;;;;;;;5020074;28;20021;-64
2024/03/27 08:01:29;;;;;;;17.75;8.10;;;;;;;;;;5011405;28;20029;-65
2024/03/27 08:04:15;;;;;;;13.65;7.78;;;;;;;;;;5010984;28;20114;-65
2024/03/27 08:07:00;;;;;;;17.67;9.27;;;;;;;;;;5011009;28;20029;-65
2024/03/27 08:09:50;;;;;;;20.77;10.15;;;;;;;;;;5011552;28;20021;-65
2024/03/27 08:12:36;;;;;;;21.95;9.38;;;;;;;;;;5000792;28;20030;-64
2024/03/27 08:15:22;;;;;;;19.77;10.63;;;;;;;;;;5011056;28;20402;-64
2024/03/27 08:18:07;;;;;;;22.70;10.43;;;;;;;;;;5011965;28;20124;-65
2024/03/27 08:20:54;;;;;;;21.58;11.02;;;;;;;;;;5013012;28;20104;-65
2024/03/27 08:23:39;;;;;;;20.73;10.00;;;;;;;;;;4997523;28;20025;-64
2024/03/27 08:26:25;;;;;;;18.40;8.70;;;;;;;;;;5016561;28;20021;-65
2024/03/27 08:29:11;;;;;;;20.67;9.18;;;;;;;;;;5011166;28;20033;-65
2024/03/27 08:32:00;;;;;;;16.13;8.02;;;;;;;;;;5045914;28;20533;-65
2024/03/27 08:34:45;;;;;;;17.60;8.32;;;;;;;;;;5034485;28;20030;-64
2024/03/27 08:37:31;;;;;;;12.25;6.50;;;;;;;;;;5018826;28;20021;-65
2024/03/27 08:40:16;;;;;;;13.68;7.45;;;;;;;;;;5029379;28;20483;-64
2024/03/27 08:43:02;;;;;;;13.07;8.68;;;;;;;;;;5011217;28;20450;-65
2024/03/27 08:45:48;;;;;;;13.43;7.18;;;;;;;;;;5011874;28;20088;-65
2024/03/27 08:48:34;;;;;;;15.75;7.82;;;;;;;;;;5014658;28;20026;-65
2024/03/27 08:51:20;;;;;;;14.57;7.55;;;;;;;;;;5018020;28;20055;-65
2024/03/27 08:54:05;;;;;;;13.30;7.28;;;;;;;;;;5037805;28;20025;-64
2024/03/27 08:56:51;;;;;;;14.15;7.75;;;;;;;;;;5028887;28;20411;-64
2024/03/27 08:59:37;;;;;;;11.32;7.03;;;;;;;;;;5035196;28;20029;-65
2024/03/27 09:02:22;;;;;;;13.48;7.53;;;;;;;;;;5034790;28;20028;-65
2024/03/27 09:05:08;;;;;;;12.73;7.45;;;;;;;;;;5035375;28;20033;-65
2024/03/27 09:07:54;;;;;;;15.07;8.27;;;;;;;;;;5038721;28;20032;-65
2024/03/27 09:10:39;;;;;;;14.25;7.82;;;;;;;;;;5032756;28;20549;-65
2024/03/27 09:13:25;;;;;;;18.40;7.28;;;;;;;;;;5033205;28;20087;-65
2024/03/27 09:16:11;;;;;;;15.68;6.35;;;;;;;;;;5028300;28;20037;-65
2024/03/27 09:18:57;;;;;;;12.75;6.95;;;;;;;;;;5015589;28;20018;-65
2024/03/27 09:21:43;;;;;;;14.70;8.38;;;;;;;;;;5014821;28;20030;-65
2024/03/27 09:24:30;;;;;;;12.60;7.50;;;;;;;;;;5019213;28;20051;-65
2024/03/27 09:27:15;;;;;;;15.05;7.25;;;;;;;;;;5035004;28;20034;-65
2024/03/27 09:30:01;;;;;;;16.55;7.28;;;;;;;;;;5035172;28;20025;-65
2024/03/27 09:32:47;;;;;;;16.33;7.82;;;;;;;;;;5034004;28;20226;-65
2024/03/27 09:35:32;;;;;;;16.13;7.75;;;;;;;;;;5034642;28;20029;-65
2024/03/27 09:38:18;;;;;;;16.38;7.80;;;;;;;;;;5035385;28;20066;-65
2024/03/27 09:41:04;;;;;;;16.20;8.40;;;;;;;;;;5029345;28;20030;-65
2024/03/27 09:43:51;;;;;;;17.05;8.93;;;;;;;;;;5041935;28;20024;-65
2024/03/27 09:46:38;;;;;;;12.88;8.65;;;;;;;;;;5053572;28;20371;-66
2024/03/27 09:49:25;;;;;;;16.63;7.93;;;;;;;;;;5054414;28;20552;-65
2024/03/27 09:52:11;;;;;;;17.38;8.05;;;;;;;;;;5054056;28;20124;-65
2024/03/27 09:54:56;;;;;;;15.55;8.52;;;;;;;;;;5037892;28;20030;-65
2024/03/27 09:57:42;;;;;;;15.23;8.35;;;;;;;;;;5032762;28;20061;-64
2024/03/27 10:00:28;;;;;;;14.52;7.60;;;;;;;;;;5033699;28;20510;-65
2024/03/27 10:03:14;;;;;;;15.35;7.70;;;;;;;;;;5034145;28;20035;-65
2024/03/27 10:06:00;;;;;;;14.48;7.55;;;;;;;;;;5034034;28;20479;-65
2024/03/27 10:08:46;;;;;;;16.25;7.25;;;;;;;;;;5027830;28;20122;-65
2024/03/27 10:11:32;;;;;;;15.80;8.73;;;;;;;;;;5033839;28;20376;-65
2024/03/27 10:14:17;;;;;;;15.30;7.53;;;;;;;;;;5037002;28;20040;-65
2024/03/27 10:17:03;;;;;;;11.75;6.85;;;;;;;;;;5052532;28;20025;-65
2024/03/27 10:19:49;;;;;;;16.60;7.60;;;;;;;;;;5053669;28;20025;-65
2024/03/27 10:22:36;;;;;;;13.98;6.97;;;;;;;;;;5055719;28;20079;-66
2024/03/27 10:25:22;;;;;;;13.75;7.07;;;;;;;;;;5051811;28;20027;-65
2024/03/27 10:28:08;;;;;;;12.85;7.05;;;;;;;;;;5018276;28;20136;-65
2024/03/27 10:30:57;;;;;;;12.52;7.43;;;;;;;;;;5032686;28;20380;-65
2024/03/27 10:33:42;;;;;;;12.02;7.00;;;;;;;;;;5033432;28;20553;-66
2024/03/27 10:36:29;;;;;;;16.45;7.38;;;;;;;;;;5033534;28;20112;-65
2024/03/27 10:39:16;;;;;;;13.93;7.20;;;;;;;;;;5034873;28;20021;-65
2024/03/27 10:42:03;;;;;;;14.90;7.53;;;;;;;;;;5026093;28;20030;-65
2024/03/27 10:44:49;;;;;;;13.25;6.75;;;;;;;;;;5017944;28;20029;-66
2024/03/27 10:47:36;;;;;;;12.68;7.03;;;;;;;;;;5032419;28;20025;-66
2024/03/27 10:50:23;;;;;;;14.68;7.30;;;;;;;;;;5033754;28;20026;-65
2024/03/27 10:53:11;;;;;;;13.43;7.00;;;;;;;;;;5024698;28;20041;-66
2024/03/27 10:55:57;;;;;;;15.13;7.30;;;;;;;;;;5000348;28;20052;-65
2024/03/27 10:58:43;;;;;;;15.68;7.40;;;;;;;;;;5008412;28;20030;-66
2024/03/27 11:01:29;;;;;;;16.92;7.32;;;;;;;;;;4998747;28;20018;-66
2024/03/27 11:04:15;;;;;;;14.27;6.68;;;;;;;;;;5013165;28;20483;-65
2024/03/27 11:07:00;;;;;;;15.15;6.80;;;;;;;;;;5014215;28;20029;-66
2024/03/27 11:09:51;;;;;;;14.90;6.90;;;;;;;;;;5013510;28;20499;-65
2024/03/27 11:12:36;;;;;;;13.75;7.05;;;;;;;;;;5027111;28;20060;-65
2024/03/27 11:15:22;;;;;;;12.95;7.20;;;;;;;;;;5031783;28;20453;-65
2024/03/27 11:18:16;;;;;;;12.30;6.75;;;;;;;;;;5032567;28;20104;-66
2024/03/27 11:21:01;;;;;;;11.43;6.50;;;;;;;;;;5032770;28;20428;-66
2024/03/27 11:23:50;;;;;;;11.45;6.78;;;;;;;;;;5031843;28;20045;-66
2024/03/27 11:26:35;;;;;;;16.95;7.20;;;;;;;;;;5026572;28;20033;-66
2024/03/27 11:29:25;;;;;;;12.02;7.03;;;;;;;;;;5025813;28;20076;-66
2024/03/27 11:32:11;;;;;;;;;;;;;;;;;;5031316;28;20070;-65
2024/03/27 11:34:56;;;;;;;11.80;6.95;;;;;;;;;;5010431;28;20389;-66
2024/03/27 11:37:42;;;;;;;16.45;7.75;;;;;;;;;;5011773;28;20068;-66
2024/03/27 11:40:28;;;;;;;13.52;7.38;;;;;;;;;;5015348;28;20021;-65
2024/03/27 11:43:13;;;;;;;13.10;6.80;;;;;;;;;;5031514;28;20455;-65
2024/03/27 11:45:59;;;;;;;12.18;6.90;;;;;;;;;;5031841;28;20057;-65
2024/03/27 11:48:45;;;;;;;13.63;7.20;;;;;;;;;;5018110;28;20387;-65
2024/03/27 11:51:30;;;;;;;19.35;7.35;;;;;;;;;;5032339;28;20028;-65
2024/03/27 11:54:16;;;;;;;16.70;7.32;;;;;;;;;;5066160;23;20072;-64
2024/03/27 11:57:02;;;;;;;12.95;7.00;;;;;;;;;;5061348;28;20019;-64
2024/03/27 11:59:49;;;;;;;15.93;8.55;;;;;;;;;;5071186;28;20025;-65
2024/03/27 12:02:36;;;;;;;14.13;7.22;;;;;;;;;;5055576;28;20142;-65
2024/03/27 12:05:21;;;;;;;15.30;6.70;;;;;;;;;;5051533;28;20055;-65
2024/03/27 12:08:07;;;;;;;12.13;6.80;;;;;;;;;;5051397;28;20536;-65
2024/03/27 12:10:53;;;;;;;17.02;7.13;;;;;;;;;;5051970;28;20039;-65
2024/03/27 12:13:38;;;;;;;15.68;7.75;;;;;;;;;;5051472;28;20413;-66
2024/03/27 12:16:24;;;;;;;12.40;6.20;;;;;;;;;;5050951;28;20110;-65
2024/03/27 12:19:10;;;;;;;15.48;6.60;;;;;;;;;;5051757;28;20017;-66
2024/03/27 12:21:56;;;;;;;14.95;6.53;;;;;;;;;;5037212;28;20021;-65
2024/03/27 12:24:42;;;;;;;12.15;6.80;;;;;;;;;;5045068;28;20029;-66
2024/03/27 12:27:31;;;;;;;13.63;7.25;;;;;;;;;;5017853;28;20120;-66
2024/03/27 12:30:17;;;;;;;12.77;6.47;;;;;;;;;;5016397;28;20025;-66
2024/03/27 12:33:03;;;;;;;18.67;7.47;;;;;;;;;;5030400;28;20542;-66
2024/03/27 12:35:49;;;;;;;11.93;7.03;;;;;;;;;;5031508;28;20479;-65
2024/03/27 12:38:35;;;;;;;15.30;6.45;;;;;;;;;;5031641;28;20395;-66
2024/03/27 12:41:20;;;;;;;14.15;6.82;;;;;;;;;;5026587;28;20022;-66
2024/03/27 12:44:06;;;;;;;13.55;7.30;;;;;;;;;;5012662;28;20506;-66
2024/03/27 12:46:52;;;;;;;15.48;6.95;;;;;;;;;;5012025;28;20502;-66
2024/03/27 12:49:37;;;;;;;13.40;7.32;;;;;;;;;;5012460;28;20025;-66
2024/03/27 12:52:24;;;;;;;14.10;7.07;;;;;;;;;;5019343;28;20025;-66
2024/03/27 12:55:09;;;;;;;14.90;7.00;;;;;;;;;;5010767;28;20112;-66
2024/03/27 12:57:55;;;;;;;14.77;6.97;;;;;;;;;;5011163;28;20103;-65
2024/03/27 13:00:41;;;;;;;14.35;7.47;;;;;;;;;;5011888;28;20025;-66
2024/03/27 13:03:26;;;;;;;15.55;8.43;;;;;;;;;;5011272;28;20033;-66
2024/03/27 13:06:12;;;;;;;17.90;6.82;;;;;;;;;;5011585;28;20026;-66
2024/03/27 13:08:58;;;;;;;14.00;6.60;;;;;;;;;;5021525;28;20506;-66
2024/03/27 13:11:43;;;;;;;12.18;6.68;;;;;;;;;;5031636;28;20033;-66
2024/03/27 13:14:29;;;;;;;14.50;7.15;;;;;;;;;;5031175;28;20053;-66
2024/03/27 13:17:15;;;;;;;13.27;7.45;;;;;;;;;;5032074;28;20387;-66
2024/03/27 13:20:01;;;;;;;15.85;6.35;;;;;;;;;;5016473;28;20029;-66
2024/03/27 13:22:48;;;;;;;12.85;6.45;;;;;;;;;;5003117;28;20053;-66
2024/03/27 13:25:33;;;;;;;15.65;8.52;;;;;;;;;;5031113;28;20140;-66
2024/03/27 13:28:19;;;;;;;15.80;8.32;;;;;;;;;;5048828;28;20026;-66
2024/03/27 13:31:04;;;;;;;16.35;8.00;;;;;;;;;;5049914;28;20028;-65
2024/03/27 13:33:51;;;;;;;14.80;7.57;;;;;;;;;;5050805;28;20021;-67
2024/03/27 13:36:36;;;;;;;16.05;8.43;;;;;;;;;;5053901;28;20036;-67
2024/03/27 13:39:22;;;;;;;14.95;8.18;;;;;;;;;;5039493;28;20021;-67
2024/03/27 13:42:07;;;;;;;16.63;8.18;;;;;;;;;;5022856;28;20058;-67
2024/03/27 13:44:53;;;;;;;16.98;8.70;;;;;;;;;;5015492;28;20454;-67
2024/03/27 13:47:38;;;;;;;21.85;8.20;;;;;;;;;;5015724;28;20458;-67
2024/03/27 13:50:24;;;;;;;20.13;9.32;;;;;;;;;;5015828;28;20037;-67
2024/03/27 13:53:10;;;;;;;12.63;7.32;;;;;;;;;;5015725;28;20033;-67
2024/03/27 13:55:56;;;;;;;17.02;8.50;;;;;;;;;;5027924;28;20033;-67
2024/03/27 13:58:41;;;;;;;25.27;8.98;;;;;;;;;;5034091;28;20022;-67
2024/03/27 14:01:27;;;;;;;15.25;8.18;;;;;;;;;;5033760;28;20055;-67
2024/03/27 14:04:13;;;;;;;16.60;8.98;;;;;;;;;;5034094;28;20024;-67
2024/03/27 14:06:58;;;;;;;20.52;10.05;;;;;;;;;;5033566;28;20036;-67
2024/03/27 14:09:44;;;;;;;15.43;9.00;;;;;;;;;;5024903;28;20072;-67
2024/03/27 14:12:29;;;;;;;15.93;9.43;;;;;;;;;;5031412;28;20033;-67
2024/03/27 14:15:15;;;;;;;17.92;9.73;;;;;;;;;;5033480;28;20079;-68
2024/03/27 14:18:01;;;;;;;15.63;7.95;;;;;;;;;;5034288;28;20056;-67
2024/03/27 14:20:46;;;;;;;15.65;8.63;;;;;;;;;;5034756;28;20551;-67
2024/03/27 14:23:32;;;;;;;18.80;9.52;;;;;;;;;;5033855;28;20025;-67
2024/03/27 14:26:17;;;;;;;17.75;9.95;;;;;;;;;;5029784;28;20025;-67
2024/03/27 14:29:03;;;;;;;18.13;10.55;;;;;;;;;;5012813;28;20076;-67
2024/03/27 14:31:49;;;;;;;23.77;9.73;;;;;;;;;;5014037;28;20109;-68
2024/03/27 14:34:34;;;;;;;17.33;8.68;;;;;;;;;;5012713;28;20030;-68
2024/03/27 14:37:20;;;;;;;16.48;9.18;;;;;;;;;;5013305;28;20434;-67
2024/03/27 14:40:07;;;;;;;20.48;9.25;;;;;;;;;;5019557;28;20025;-67
2024/03/27 14:42:53;;;;;;;17.13;8.95;;;;;;;;;;5032822;28;20063;-67
2024/03/27 14:45:38;;;;;;;21.17;10.98;;;;;;;;;;5032880;28;20031;-67
2024/03/27 14:48:24;;;;;;;23.05;10.82;;;;;;;;;;5032430;28;20029;-67
2024/03/27 14:51:09;;;;;;;19.08;9.55;;;;;;;;;;5031468;28;20539;-67
2024/03/27 14:53:55;;;;;;;20.73;10.13;;;;;;;;;;5032223;28;20403;-67
2024/03/27 14:56:41;;;;;;;16.65;8.93;;;;;;;;;;5028478;28;20033;-67
2024/03/27 14:59:27;;;;;;;21.02;9.35;;;;;;;;;;5017712;28;20025;-67
2024/03/27 15:02:12;;;;;;;20.00;9.73;;;;;;;;;;5026104;28;20498;-67
2024/03/27 15:04:58;;;;;;;21.30;9.32;;;;;;;;;;5031935;28;20463;-67
2024/03/27 15:07:44;;;;;;;23.25;10.32;;;;;;;;;;5032805;28;20036;-67
2024/03/27 15:10:30;;;;;;;21.65;9.25;;;;;;;;;;5032444;28;20075;-67
2024/03/27 15:13:15;;;;;;;21.88;9.70;;;;;;;;;;5027718;28;20034;-67
2024/03/27 15:16:01;;;;;;;27.25;10.10;;;;;;;;;;5032250;28;20052;-67
2024/03/27 15:18:47;;;;;;;20.90;9.68;;;;;;;;;;5031535;28;20491;-67
2024/03/27 15:21:32;;;;;;;21.42;8.48;;;;;;;;;;5032688;28;20091;-67
2024/03/27 15:24:18;;;;;;;18.90;8.93;;;;;;;;;;5033704;28;20037;-67
2024/03/27 15:27:04;;;;;;;25.70;9.13;;;;;;;;;;5025987;28;20087;-67
2024/03/27 15:29:49;;;;;;;19.20;8.70;;;;;;;;;;5031450;28;20064;-67
2024/03/27 15:32:35;;;;;;;19.05;8.80;;;;;;;;;;5031969;28;20112;-67
2024/03/27 15:35:21;;;;;;;21.00;9.25;;;;;;;;;;5032597;28;20030;-67
2024/03/27 15:38:07;;;;;;;19.25;9.10;;;;;;;;;;5032095;28;20026;-67
2024/03/27 15:40:56;;;;;;;17.58;7.45;;;;;;;;;;5032826;28;20025;-67
2024/03/27 15:43:41;;;;;;;17.70;8.50;;;;;;;;;;5035457;28;20087;-67
2024/03/27 15:46:27;;;;;;;21.70;10.50;;;;;;;;;;5032165;28;20022;-67
2024/03/27 15:49:13;;;;;;;18.15;9.35;;;;;;;;;;5032006;28;20446;-67
2024/03/27 15:51:59;;;;;;;18.73;8.63;;;;;;;;;;5033354;28;20025;-67
2024/03/27 15:54:44;;;;;;;19.33;9.25;;;;;;;;;;5032322;28;20101;-67
2024/03/27 15:57:30;;;;;;;23.27;10.23;;;;;;;;;;5020116;28;20079;-67
2024/03/27 16:00:16;;;;;;;17.40;9.20;;;;;;;;;;5013370;28;20083;-67
2024/03/27 16:03:02;;;;;;;18.55;9.13;;;;;;;;;;5012540;28;20065;-67
2024/03/27 16:05:48;;;;;;;17.70;9.30;;;;;;;;;;5011839;28;20087;-66
2024/03/27 16:08:33;;;;;;;18.75;10.23;;;;;;;;;;5012360;28;20017;-67
2024/03/27 16:11:19;;;;;;;19.00;8.40;;;;;;;;;;5023989;28;20057;-67
2024/03/27 16:14:04;;;;;;;23.63;10.20;;;;;;;;;;5024538;28;20033;-68
2024/03/27 16:16:50;;;;;;;21.30;9.52;;;;;;;;;;5030928;28;20029;-66
2024/03/27 16:19:36;;;;;;;19.65;8.93;;;;;;;;;;5031496;28;20025;-66
2024/03/27 16:22:21;;;;;;;23.40;10.00;;;;;;;;;;5016890;28;20018;-67